Impacts METAR Board INFO
IDs:

KMCO - Orlando Intl, FL, US

Updated at: 2117 UTC 19 Jan 2018
Potential Impact None Slight Moderate High
Time19/09Z 19/10Z 19/11Z 19/12Z 19/13Z 19/14Z 19/15Z 19/16Z 19/17Z 19/18Z 19/19Z 19/20Z 19/21Z
VIS10 10 10 10 10 10 10 10 10 10 10 10 10
CIG-- -- -- 300 300 300 300 300 300 300 300 -- --
CoverCLRFEWFEWBKNBKNBKNBKNBKNBKNBKNBKNSCTFEW
FltCatVFRVFRVFRVFRVFRVFRVFRVFRVFRVFRVFRVFRVFR
WX--------------------------
WDir35036036035036010305000000
WSpd5 6 6 7 6 10 5 5 3 0 0 4 0
WGst-- -- -- -- -- -- -- -- -- -- -- -- --
Raw hourly METARs
KMCO 190853Z 35005KT 10SM CLR 02/M01 A3032 RMK AO2 SLP267 T00221011 56009
KMCO 190953Z 36006KT 10SM FEW250 02/M01 A3032 RMK AO2 SLP267 T00221011
KMCO 191053Z 36006KT 10SM FEW250 02/M02 A3032 RMK AO2 SLP267 T00221017
KMCO 191153Z 35007KT 10SM FEW250 BKN300 03/M03 A3033 RMK AO2 SLP271 T00281028 10033 20017 53003
KMCO 191253Z 36006KT 10SM BKN300 04/M03 A3034 RMK AO2 SLP274 T00441028
KMCO 191353Z 01010KT 10SM BKN300 08/M04 A3036 RMK AO2 SLP279 T00781044
KMCO 191453Z 03005KT 10SM BKN300 11/M04 A3037 RMK AO2 SLP282 T01111039 53012
KMCO 191553Z 05005KT 10SM BKN300 13/00 A3035 RMK AO2 SLP278 T01330000
KMCO 191653Z VRB03KT 10SM BKN300 16/02 A3034 RMK AO2 SLP273 T01560022
KMCO 191753Z 00000KT 10SM BKN300 16/03 A3031 RMK AO2 SLP263 T01610028 10167 20028 58019
KMCO 191853Z 00000KT 10SM BKN300 17/03 A3028 RMK AO2 SLP252 T01670033
KMCO 191953Z VRB04KT 10SM SCT300 17/03 A3026 RMK AO2 SLP246 T01720028
KMCO 192053Z 00000KT 10SM FEW300 18/02 A3025 RMK AO2 SLP241 T01780022 56022